<?xml version="1.0" encoding="UTF-8" standalone="no" ?>
<gpx xmlns="http://www.topografix.com/GPX/1/1" xmlns:xsi="http://www.w3.org/2001/XMLSchema-instance" xsi:schemaLocation="http://www.topografix.com/GPX/1/1 http://www.topografix.com/GPX/1/1/gpx.xsd" version="1.1" creator="VisuGPX - https://www.visugpx.com">
  <metadata>
    <name>Transcaucasie: Géorgie + Arménie</name>
  </metadata>
  <trk>
    <name><![CDATA[Tour d'Europe: étape 438]]></name>
    <extensions>
      <line xmlns="http://www.topografix.com/GPX/gpx_style/0/2">
        <color>00FF00</color>
        <width>4</width>
      </line>
    </extensions>
    <trkseg>
      <trkpt lat="42.15237" lon="41.66161">
        <ele>31.726208</ele>
        <time>2021-09-09T05:49:00.560Z</time>
      </trkpt>
      <trkpt lat="42.15223" lon="41.66259">
        <ele>32.742763</ele>
        <time>2021-09-09T05:53:19.558Z</time>
      </trkpt>
      <trkpt lat="42.15267" lon="41.66532">
        <ele>39.40076</ele>
        <time>2021-09-09T05:54:21.568Z</time>
      </trkpt>
      <trkpt lat="42.15214" lon="41.66813">
        <ele>31.37004</ele>
        <time>2021-09-09T05:55:21.543Z</time>
      </trkpt>
      <trkpt lat="42.1509" lon="41.67074">
        <ele>27.941384</ele>
        <time>2021-09-09T05:56:21.519Z</time>
      </trkpt>
      <trkpt lat="42.14957" lon="41.67326">
        <ele>31.163745</ele>
        <time>2021-09-09T05:57:20.531Z</time>
      </trkpt>
      <trkpt lat="42.14921" lon="41.67632">
        <ele>32.632572</ele>
        <time>2021-09-09T05:58:18.529Z</time>
      </trkpt>
      <trkpt lat="42.14951" lon="41.67908">
        <ele>32.146748</ele>
        <time>2021-09-09T05:59:21.534Z</time>
      </trkpt>
      <trkpt lat="42.15086" lon="41.68153">
        <ele>31.645986</ele>
        <time>2021-09-09T06:00:19.539Z</time>
      </trkpt>
      <trkpt lat="42.15044" lon="41.6809">
        <ele>23.206187</ele>
        <time>2021-09-09T06:05:37.517Z</time>
      </trkpt>
      <trkpt lat="42.14996" lon="41.67867">
        <ele>25.784453</ele>
        <time>2021-09-09T06:06:33.524Z</time>
      </trkpt>
      <trkpt lat="42.14928" lon="41.67588">
        <ele>22.004915</ele>
        <time>2021-09-09T06:07:21.536Z</time>
      </trkpt>
      <trkpt lat="42.14972" lon="41.67299">
        <ele>18.728554</ele>
        <time>2021-09-09T06:08:06.518Z</time>
      </trkpt>
      <trkpt lat="42.15112" lon="41.67135">
        <ele>23.366901</ele>
        <time>2021-09-09T06:09:07.554Z</time>
      </trkpt>
      <trkpt lat="42.15318" lon="41.67071">
        <ele>26.839439</ele>
        <time>2021-09-09T06:10:26.503Z</time>
      </trkpt>
      <trkpt lat="42.15528" lon="41.67006">
        <ele>24.257582</ele>
        <time>2021-09-09T06:11:08.504Z</time>
      </trkpt>
      <trkpt lat="42.15768" lon="41.66939">
        <ele>27.476447</ele>
        <time>2021-09-09T06:12:31.553Z</time>
      </trkpt>
      <trkpt lat="42.15998" lon="41.66889">
        <ele>23.959899</ele>
        <time>2021-09-09T06:13:26.561Z</time>
      </trkpt>
      <trkpt lat="42.16228" lon="41.66858">
        <ele>21.090587</ele>
        <time>2021-09-09T06:14:20.520Z</time>
      </trkpt>
      <trkpt lat="42.16472" lon="41.66802">
        <ele>21.18172</ele>
        <time>2021-09-09T06:15:18.552Z</time>
      </trkpt>
      <trkpt lat="42.16703" lon="41.6675">
        <ele>25.402236</ele>
        <time>2021-09-09T06:16:14.531Z</time>
      </trkpt>
      <trkpt lat="42.1678" lon="41.66979">
        <ele>28.009678</ele>
        <time>2021-09-09T06:17:14.520Z</time>
      </trkpt>
      <trkpt lat="42.16844" lon="41.67255">
        <ele>25.552521</ele>
        <time>2021-09-09T06:18:21.542Z</time>
      </trkpt>
      <trkpt lat="42.17" lon="41.67479">
        <ele>20.867228</ele>
        <time>2021-09-09T06:19:18.535Z</time>
      </trkpt>
      <trkpt lat="42.17156" lon="41.67696">
        <ele>18.042733</ele>
        <time>2021-09-09T06:20:13.528Z</time>
      </trkpt>
      <trkpt lat="42.17313" lon="41.67908">
        <ele>18.24226</ele>
        <time>2021-09-09T06:21:05.536Z</time>
      </trkpt>
      <trkpt lat="42.17481" lon="41.68129">
        <ele>20.575505</ele>
        <time>2021-09-09T06:22:01.525Z</time>
      </trkpt>
      <trkpt lat="42.17609" lon="41.68371">
        <ele>18.450559</ele>
        <time>2021-09-09T06:22:54.560Z</time>
      </trkpt>
      <trkpt lat="42.17723" lon="41.68616">
        <ele>19.06339</ele>
        <time>2021-09-09T06:23:52.527Z</time>
      </trkpt>
      <trkpt lat="42.1785" lon="41.68849">
        <ele>23.106978</ele>
        <time>2021-09-09T06:24:42.530Z</time>
      </trkpt>
      <trkpt lat="42.17999" lon="41.69068">
        <ele>19.983192</ele>
        <time>2021-09-09T06:25:37.539Z</time>
      </trkpt>
      <trkpt lat="42.18165" lon="41.69278">
        <ele>23.292949</ele>
        <time>2021-09-09T06:26:30.542Z</time>
      </trkpt>
      <trkpt lat="42.18335" lon="41.69508">
        <ele>23.259919</ele>
        <time>2021-09-09T06:27:29.542Z</time>
      </trkpt>
      <trkpt lat="42.18489" lon="41.69718">
        <ele>20.574496</ele>
        <time>2021-09-09T06:28:21.544Z</time>
      </trkpt>
      <trkpt lat="42.18551" lon="41.69979">
        <ele>20.879578</ele>
        <time>2021-09-09T06:29:16.513Z</time>
      </trkpt>
      <trkpt lat="42.18537" lon="41.70275">
        <ele>24.660028</ele>
        <time>2021-09-09T06:30:17.535Z</time>
      </trkpt>
      <trkpt lat="42.18592" lon="41.70559">
        <ele>24.231931</ele>
        <time>2021-09-09T06:31:18.582Z</time>
      </trkpt>
      <trkpt lat="42.18762" lon="41.70755">
        <ele>24.066445</ele>
        <time>2021-09-09T06:32:19.581Z</time>
      </trkpt>
      <trkpt lat="42.18972" lon="41.70789">
        <ele>20.806481</ele>
        <time>2021-09-09T06:33:07.541Z</time>
      </trkpt>
      <trkpt lat="42.19181" lon="41.70782">
        <ele>20.709123</ele>
        <time>2021-09-09T06:33:52.549Z</time>
      </trkpt>
      <trkpt lat="42.19393" lon="41.70775">
        <ele>21.659005</ele>
        <time>2021-09-09T06:34:39.545Z</time>
      </trkpt>
      <trkpt lat="42.19584" lon="41.70868">
        <ele>22.720022</ele>
        <time>2021-09-09T06:35:24.534Z</time>
      </trkpt>
      <trkpt lat="42.19698" lon="41.71124">
        <ele>23.237305</ele>
        <time>2021-09-09T06:36:16.530Z</time>
      </trkpt>
      <trkpt lat="42.19805" lon="41.71407">
        <ele>22.583423</ele>
        <time>2021-09-09T06:37:12.522Z</time>
      </trkpt>
      <trkpt lat="42.19919" lon="41.71702">
        <ele>22.998516</ele>
        <time>2021-09-09T06:38:10.543Z</time>
      </trkpt>
      <trkpt lat="42.20029" lon="41.71982">
        <ele>23.443111</ele>
        <time>2021-09-09T06:39:07.548Z</time>
      </trkpt>
      <trkpt lat="42.20133" lon="41.7227">
        <ele>21.286967</ele>
        <time>2021-09-09T06:40:05.533Z</time>
      </trkpt>
      <trkpt lat="42.20236" lon="41.72551">
        <ele>26.001965</ele>
        <time>2021-09-09T06:41:02.583Z</time>
      </trkpt>
      <trkpt lat="42.20349" lon="41.72848">
        <ele>29.060638</ele>
        <time>2021-09-09T06:42:02.563Z</time>
      </trkpt>
      <trkpt lat="42.20459" lon="41.73138">
        <ele>28.870247</ele>
        <time>2021-09-09T06:43:02.538Z</time>
      </trkpt>
      <trkpt lat="42.20573" lon="41.73444">
        <ele>28.651507</ele>
        <time>2021-09-09T06:44:04.576Z</time>
      </trkpt>
      <trkpt lat="42.20678" lon="41.73726">
        <ele>27.899282</ele>
        <time>2021-09-09T06:45:01.532Z</time>
      </trkpt>
      <trkpt lat="42.20785" lon="41.74018">
        <ele>25.939738</ele>
        <time>2021-09-09T06:45:59.541Z</time>
      </trkpt>
      <trkpt lat="42.2089" lon="41.74302">
        <ele>25.931488</ele>
        <time>2021-09-09T06:46:59.547Z</time>
      </trkpt>
      <trkpt lat="42.20998" lon="41.74586">
        <ele>28.784085</ele>
        <time>2021-09-09T06:47:59.581Z</time>
      </trkpt>
      <trkpt lat="42.21106" lon="41.74873">
        <ele>29.148832</ele>
        <time>2021-09-09T06:48:57.542Z</time>
      </trkpt>
      <trkpt lat="42.21206" lon="41.75148">
        <ele>25.383739</ele>
        <time>2021-09-09T06:49:51.559Z</time>
      </trkpt>
      <trkpt lat="42.21303" lon="41.75432">
        <ele>21.102946</ele>
        <time>2021-09-09T06:50:46.538Z</time>
      </trkpt>
      <trkpt lat="42.21378" lon="41.75727">
        <ele>16.828728</ele>
        <time>2021-09-09T06:51:45.528Z</time>
      </trkpt>
      <trkpt lat="42.21441" lon="41.76013">
        <ele>18.501323</ele>
        <time>2021-09-09T06:52:45.528Z</time>
      </trkpt>
      <trkpt lat="42.21504" lon="41.76293">
        <ele>20.501396</ele>
        <time>2021-09-09T06:53:45.558Z</time>
      </trkpt>
      <trkpt lat="42.2157" lon="41.7658">
        <ele>19.288018</ele>
        <time>2021-09-09T06:54:45.554Z</time>
      </trkpt>
      <trkpt lat="42.21639" lon="41.76889">
        <ele>19.85564</ele>
        <time>2021-09-09T06:55:45.567Z</time>
      </trkpt>
      <trkpt lat="42.2171" lon="41.77184">
        <ele>21.819703</ele>
        <time>2021-09-09T06:56:42.585Z</time>
      </trkpt>
      <trkpt lat="42.21772" lon="41.77458">
        <ele>23.283832</ele>
        <time>2021-09-09T06:57:45.512Z</time>
      </trkpt>
      <trkpt lat="42.21836" lon="41.77731">
        <ele>23.554996</ele>
        <time>2021-09-09T06:58:45.557Z</time>
      </trkpt>
      <trkpt lat="42.219" lon="41.78015">
        <ele>24.53683</ele>
        <time>2021-09-09T06:59:46.530Z</time>
      </trkpt>
      <trkpt lat="42.21974" lon="41.78335">
        <ele>24.927302</ele>
        <time>2021-09-09T07:00:44.533Z</time>
      </trkpt>
      <trkpt lat="42.22038" lon="41.78626">
        <ele>25.563108</ele>
        <time>2021-09-09T07:01:42.561Z</time>
      </trkpt>
      <trkpt lat="42.22106" lon="41.78934">
        <ele>24.339962</ele>
        <time>2021-09-09T07:02:42.561Z</time>
      </trkpt>
      <trkpt lat="42.22153" lon="41.79232">
        <ele>24.521943</ele>
        <time>2021-09-09T07:03:41.531Z</time>
      </trkpt>
      <trkpt lat="42.22209" lon="41.79543">
        <ele>28.254192</ele>
        <time>2021-09-09T07:04:41.527Z</time>
      </trkpt>
      <trkpt lat="42.22287" lon="41.79822">
        <ele>30.553014</ele>
        <time>2021-09-09T07:05:39.502Z</time>
      </trkpt>
      <trkpt lat="42.22353" lon="41.801">
        <ele>27.03132</ele>
        <time>2021-09-09T07:06:31.546Z</time>
      </trkpt>
      <trkpt lat="42.22423" lon="41.8041">
        <ele>24.80811</ele>
        <time>2021-09-09T07:07:30.532Z</time>
      </trkpt>
      <trkpt lat="42.2249" lon="41.80719">
        <ele>24.474043</ele>
        <time>2021-09-09T07:08:29.571Z</time>
      </trkpt>
      <trkpt lat="42.22554" lon="41.81021">
        <ele>25.782149</ele>
        <time>2021-09-09T07:09:26.552Z</time>
      </trkpt>
      <trkpt lat="42.22615" lon="41.81303">
        <ele>25.563551</ele>
        <time>2021-09-09T07:10:21.521Z</time>
      </trkpt>
      <trkpt lat="42.22674" lon="41.81602">
        <ele>27.40369</ele>
        <time>2021-09-09T07:11:19.575Z</time>
      </trkpt>
      <trkpt lat="42.22737" lon="41.81904">
        <ele>24.659294</ele>
        <time>2021-09-09T07:12:16.536Z</time>
      </trkpt>
      <trkpt lat="42.22796" lon="41.82206">
        <ele>27.084644</ele>
        <time>2021-09-09T07:13:16.534Z</time>
      </trkpt>
      <trkpt lat="42.22859" lon="41.82513">
        <ele>25.31523</ele>
        <time>2021-09-09T07:14:15.523Z</time>
      </trkpt>
      <trkpt lat="42.22922" lon="41.82826">
        <ele>27.224782</ele>
        <time>2021-09-09T07:15:18.558Z</time>
      </trkpt>
      <trkpt lat="42.22981" lon="41.83129">
        <ele>25.650083</ele>
        <time>2021-09-09T07:16:14.540Z</time>
      </trkpt>
      <trkpt lat="42.23038" lon="41.83425">
        <ele>28.518584</ele>
        <time>2021-09-09T07:17:12.530Z</time>
      </trkpt>
      <trkpt lat="42.23103" lon="41.83738">
        <ele>26.333078</ele>
        <time>2021-09-09T07:18:12.538Z</time>
      </trkpt>
      <trkpt lat="42.23164" lon="41.84044">
        <ele>28.631067</ele>
        <time>2021-09-09T07:19:12.544Z</time>
      </trkpt>
      <trkpt lat="42.23225" lon="41.84353">
        <ele>26.476259</ele>
        <time>2021-09-09T07:20:12.533Z</time>
      </trkpt>
      <trkpt lat="42.23287" lon="41.84661">
        <ele>25.552355</ele>
        <time>2021-09-09T07:21:12.559Z</time>
      </trkpt>
      <trkpt lat="42.23365" lon="41.85039">
        <ele>28.90419</ele>
        <time>2021-09-09T07:28:38.527Z</time>
      </trkpt>
      <trkpt lat="42.23423" lon="41.85347">
        <ele>26.037685</ele>
        <time>2021-09-09T07:29:37.545Z</time>
      </trkpt>
      <trkpt lat="42.23474" lon="41.85649">
        <ele>27.37478</ele>
        <time>2021-09-09T07:30:36.535Z</time>
      </trkpt>
      <trkpt lat="42.23527" lon="41.85964">
        <ele>27.481521</ele>
        <time>2021-09-09T07:31:32.509Z</time>
      </trkpt>
      <trkpt lat="42.23585" lon="41.86293">
        <ele>26.96472</ele>
        <time>2021-09-09T07:32:30.529Z</time>
      </trkpt>
      <trkpt lat="42.23641" lon="41.86612">
        <ele>25.813715</ele>
        <time>2021-09-09T07:33:30.532Z</time>
      </trkpt>
      <trkpt lat="42.23693" lon="41.86921">
        <ele>25.880365</ele>
        <time>2021-09-09T07:34:30.523Z</time>
      </trkpt>
      <trkpt lat="42.23744" lon="41.87249">
        <ele>23.58289</ele>
        <time>2021-09-09T07:35:30.566Z</time>
      </trkpt>
      <trkpt lat="42.23792" lon="41.87565">
        <ele>25.009545</ele>
        <time>2021-09-09T07:36:29.539Z</time>
      </trkpt>
      <trkpt lat="42.2384" lon="41.87889">
        <ele>26.124893</ele>
        <time>2021-09-09T07:37:29.545Z</time>
      </trkpt>
      <trkpt lat="42.23888" lon="41.88196">
        <ele>28.476514</ele>
        <time>2021-09-09T07:38:29.522Z</time>
      </trkpt>
      <trkpt lat="42.23933" lon="41.88496">
        <ele>29.964611</ele>
        <time>2021-09-09T07:39:29.578Z</time>
      </trkpt>
      <trkpt lat="42.23977" lon="41.88794">
        <ele>31.540548</ele>
        <time>2021-09-09T07:40:29.549Z</time>
      </trkpt>
      <trkpt lat="42.24027" lon="41.89119">
        <ele>33.27125</ele>
        <time>2021-09-09T07:41:29.557Z</time>
      </trkpt>
      <trkpt lat="42.24075" lon="41.89435">
        <ele>33.973681</ele>
        <time>2021-09-09T07:42:29.535Z</time>
      </trkpt>
      <trkpt lat="42.2412" lon="41.89745">
        <ele>34.440175</ele>
        <time>2021-09-09T07:43:27.518Z</time>
      </trkpt>
      <trkpt lat="42.24161" lon="41.90033">
        <ele>39.39755</ele>
        <time>2021-09-09T07:44:27.533Z</time>
      </trkpt>
      <trkpt lat="42.24206" lon="41.90333">
        <ele>42.639676</ele>
        <time>2021-09-09T07:45:27.532Z</time>
      </trkpt>
      <trkpt lat="42.24254" lon="41.90646">
        <ele>38.835362</ele>
        <time>2021-09-09T07:46:25.538Z</time>
      </trkpt>
      <trkpt lat="42.24301" lon="41.90959">
        <ele>38.148327</ele>
        <time>2021-09-09T07:47:22.542Z</time>
      </trkpt>
      <trkpt lat="42.24347" lon="41.91281">
        <ele>37.565664</ele>
        <time>2021-09-09T07:48:20.566Z</time>
      </trkpt>
      <trkpt lat="42.24392" lon="41.91601">
        <ele>37.795263</ele>
        <time>2021-09-09T07:49:18.525Z</time>
      </trkpt>
      <trkpt lat="42.24438" lon="41.91925">
        <ele>36.580915</ele>
        <time>2021-09-09T07:50:16.534Z</time>
      </trkpt>
      <trkpt lat="42.24486" lon="41.92244">
        <ele>35.814117</ele>
        <time>2021-09-09T07:51:16.568Z</time>
      </trkpt>
      <trkpt lat="42.24533" lon="41.92563">
        <ele>34.907028</ele>
        <time>2021-09-09T07:52:16.533Z</time>
      </trkpt>
      <trkpt lat="42.24577" lon="41.92872">
        <ele>38.153805</ele>
        <time>2021-09-09T07:53:16.540Z</time>
      </trkpt>
      <trkpt lat="42.24624" lon="41.93196">
        <ele>35.700642</ele>
        <time>2021-09-09T07:54:19.522Z</time>
      </trkpt>
      <trkpt lat="42.24669" lon="41.93512">
        <ele>31.992767</ele>
        <time>2021-09-09T07:55:17.527Z</time>
      </trkpt>
      <trkpt lat="42.24717" lon="41.93821">
        <ele>34.111744</ele>
        <time>2021-09-09T07:56:17.562Z</time>
      </trkpt>
      <trkpt lat="42.24759" lon="41.94134">
        <ele>35.653154</ele>
        <time>2021-09-09T07:57:16.535Z</time>
      </trkpt>
      <trkpt lat="42.24795" lon="41.94449">
        <ele>33.160552</ele>
        <time>2021-09-09T07:58:15.518Z</time>
      </trkpt>
      <trkpt lat="42.2484" lon="41.94769">
        <ele>36.535238</ele>
        <time>2021-09-09T07:59:15.531Z</time>
      </trkpt>
      <trkpt lat="42.24883" lon="41.95077">
        <ele>37.311244</ele>
        <time>2021-09-09T08:00:15.507Z</time>
      </trkpt>
      <trkpt lat="42.24933" lon="41.95389">
        <ele>36.826677</ele>
        <time>2021-09-09T08:01:15.532Z</time>
      </trkpt>
      <trkpt lat="42.24986" lon="41.95688">
        <ele>35.830267</ele>
        <time>2021-09-09T08:02:07.527Z</time>
      </trkpt>
      <trkpt lat="42.25031" lon="41.95998">
        <ele>36.432247</ele>
        <time>2021-09-09T08:03:03.520Z</time>
      </trkpt>
      <trkpt lat="42.25076" lon="41.96327">
        <ele>35.096211</ele>
        <time>2021-09-09T08:04:03.551Z</time>
      </trkpt>
      <trkpt lat="42.25124" lon="41.96656">
        <ele>34.970879</ele>
        <time>2021-09-09T08:05:03.538Z</time>
      </trkpt>
      <trkpt lat="42.25169" lon="41.9697">
        <ele>35.362999</ele>
        <time>2021-09-09T08:06:03.531Z</time>
      </trkpt>
      <trkpt lat="42.25213" lon="41.97281">
        <ele>34.757376</ele>
        <time>2021-09-09T08:07:03.541Z</time>
      </trkpt>
      <trkpt lat="42.25259" lon="41.97608">
        <ele>33.062964</ele>
        <time>2021-09-09T08:08:03.535Z</time>
      </trkpt>
      <trkpt lat="42.25305" lon="41.97927">
        <ele>35.388351</ele>
        <time>2021-09-09T08:09:03.521Z</time>
      </trkpt>
      <trkpt lat="42.25351" lon="41.9825">
        <ele>34.650446</ele>
        <time>2021-09-09T08:10:03.531Z</time>
      </trkpt>
      <trkpt lat="42.25389" lon="41.9857">
        <ele>36.466675</ele>
        <time>2021-09-09T08:11:03.539Z</time>
      </trkpt>
      <trkpt lat="42.25432" lon="41.98882">
        <ele>34.73083</ele>
        <time>2021-09-09T08:12:02.540Z</time>
      </trkpt>
      <trkpt lat="42.25476" lon="41.99192">
        <ele>36.542412</ele>
        <time>2021-09-09T08:13:02.533Z</time>
      </trkpt>
      <trkpt lat="42.25529" lon="41.99468">
        <ele>37.862997</ele>
        <time>2021-09-09T08:14:02.548Z</time>
      </trkpt>
      <trkpt lat="42.25568" lon="41.99735">
        <ele>39.403328</ele>
        <time>2021-09-09T08:15:03.565Z</time>
      </trkpt>
      <trkpt lat="42.25583" lon="42.00001">
        <ele>37.907873</ele>
        <time>2021-09-09T08:16:06.529Z</time>
      </trkpt>
      <trkpt lat="42.25653" lon="42.00287">
        <ele>40.527659</ele>
        <time>2021-09-09T08:17:06.534Z</time>
      </trkpt>
      <trkpt lat="42.25692" lon="42.00575">
        <ele>38.699112</ele>
        <time>2021-09-09T08:18:06.497Z</time>
      </trkpt>
      <trkpt lat="42.25737" lon="42.00883">
        <ele>38.44871</ele>
        <time>2021-09-09T08:19:05.529Z</time>
      </trkpt>
      <trkpt lat="42.25781" lon="42.01201">
        <ele>35.658245</ele>
        <time>2021-09-09T08:20:05.529Z</time>
      </trkpt>
      <trkpt lat="42.25823" lon="42.01496">
        <ele>38.154541</ele>
        <time>2021-09-09T08:21:05.543Z</time>
      </trkpt>
      <trkpt lat="42.25859" lon="42.01778">
        <ele>40.66101</ele>
        <time>2021-09-09T08:22:06.538Z</time>
      </trkpt>
      <trkpt lat="42.25901" lon="42.02057">
        <ele>44.207243</ele>
        <time>2021-09-09T08:23:06.531Z</time>
      </trkpt>
      <trkpt lat="42.25936" lon="42.02326">
        <ele>46.842865</ele>
        <time>2021-09-09T08:24:07.538Z</time>
      </trkpt>
      <trkpt lat="42.25961" lon="42.02617">
        <ele>45.601715</ele>
        <time>2021-09-09T08:25:14.533Z</time>
      </trkpt>
      <trkpt lat="42.25973" lon="42.02925">
        <ele>43.710957</ele>
        <time>2021-09-09T08:26:10.514Z</time>
      </trkpt>
      <trkpt lat="42.25992" lon="42.0325">
        <ele>42.398108</ele>
        <time>2021-09-09T08:27:06.522Z</time>
      </trkpt>
      <trkpt lat="42.2606" lon="42.03542">
        <ele>41.167349</ele>
        <time>2021-09-09T08:27:59.557Z</time>
      </trkpt>
      <trkpt lat="42.26136" lon="42.03836">
        <ele>45.600872</ele>
        <time>2021-09-09T08:28:58.534Z</time>
      </trkpt>
      <trkpt lat="42.26205" lon="42.04121">
        <ele>46.035415</ele>
        <time>2021-09-09T08:29:58.557Z</time>
      </trkpt>
      <trkpt lat="42.26274" lon="42.04394">
        <ele>48.242633</ele>
        <time>2021-09-09T08:30:59.527Z</time>
      </trkpt>
      <trkpt lat="42.2634" lon="42.04662">
        <ele>47.425346</ele>
        <time>2021-09-09T08:31:59.539Z</time>
      </trkpt>
      <trkpt lat="42.26403" lon="42.04926">
        <ele>46.408597</ele>
        <time>2021-09-09T08:32:59.537Z</time>
      </trkpt>
      <trkpt lat="42.26475" lon="42.05203">
        <ele>50.114353</ele>
        <time>2021-09-09T08:34:02.534Z</time>
      </trkpt>
      <trkpt lat="42.26547" lon="42.05463">
        <ele>54.354214</ele>
        <time>2021-09-09T08:35:15.529Z</time>
      </trkpt>
      <trkpt lat="42.26603" lon="42.05732">
        <ele>54.535545</ele>
        <time>2021-09-09T08:36:25.533Z</time>
      </trkpt>
      <trkpt lat="42.26652" lon="42.05997">
        <ele>56.456474</ele>
        <time>2021-09-09T08:37:34.591Z</time>
      </trkpt>
      <trkpt lat="42.26662" lon="42.06281">
        <ele>60.600106</ele>
        <time>2021-09-09T08:38:39.498Z</time>
      </trkpt>
      <trkpt lat="42.26666" lon="42.06569">
        <ele>55.381339</ele>
        <time>2021-09-09T08:39:40.501Z</time>
      </trkpt>
      <trkpt lat="42.2667" lon="42.06874">
        <ele>54.85518</ele>
        <time>2021-09-09T08:40:37.550Z</time>
      </trkpt>
      <trkpt lat="42.26682" lon="42.07195">
        <ele>55.931188</ele>
        <time>2021-09-09T08:41:37.500Z</time>
      </trkpt>
      <trkpt lat="42.26875" lon="42.07231">
        <ele>60.81681</ele>
        <time>2021-09-09T08:42:53.505Z</time>
      </trkpt>
      <trkpt lat="42.26897" lon="42.07516">
        <ele>65.234811</ele>
        <time>2021-09-09T08:43:53.498Z</time>
      </trkpt>
      <trkpt lat="42.26924" lon="42.077">
        <ele>61.264031</ele>
        <time>2021-09-09T09:04:59.818Z</time>
      </trkpt>
      <trkpt lat="42.2694" lon="42.07982">
        <ele>53.094892</ele>
        <time>2021-09-09T09:06:02.830Z</time>
      </trkpt>
      <trkpt lat="42.26968" lon="42.08263">
        <ele>50.468018</ele>
        <time>2021-09-09T09:07:02.822Z</time>
      </trkpt>
      <trkpt lat="42.26995" lon="42.08546">
        <ele>53.582492</ele>
        <time>2021-09-09T09:08:02.831Z</time>
      </trkpt>
      <trkpt lat="42.27023" lon="42.08837">
        <ele>54.434873</ele>
        <time>2021-09-09T09:09:07.827Z</time>
      </trkpt>
      <trkpt lat="42.27047" lon="42.09112">
        <ele>54.921462</ele>
        <time>2021-09-09T09:10:10.865Z</time>
      </trkpt>
      <trkpt lat="42.27135" lon="42.09295">
        <ele>57.464808</ele>
        <time>2021-09-09T09:11:11.869Z</time>
      </trkpt>
      <trkpt lat="42.27334" lon="42.09202">
        <ele>64.190267</ele>
        <time>2021-09-09T09:12:11.830Z</time>
      </trkpt>
      <trkpt lat="42.27534" lon="42.09113">
        <ele>61.34368</ele>
        <time>2021-09-09T09:13:19.818Z</time>
      </trkpt>
      <trkpt lat="42.27625" lon="42.09351">
        <ele>60.941146</ele>
        <time>2021-09-09T09:14:21.839Z</time>
      </trkpt>
      <trkpt lat="42.27709" lon="42.09604">
        <ele>62.449088</ele>
        <time>2021-09-09T09:15:23.797Z</time>
      </trkpt>
      <trkpt lat="42.27798" lon="42.09865">
        <ele>66.560681</ele>
        <time>2021-09-09T09:16:30.795Z</time>
      </trkpt>
      <trkpt lat="42.2789" lon="42.10106">
        <ele>66.108009</ele>
        <time>2021-09-09T09:17:34.794Z</time>
      </trkpt>
      <trkpt lat="42.27989" lon="42.10364">
        <ele>62.893243</ele>
        <time>2021-09-09T09:18:28.796Z</time>
      </trkpt>
      <trkpt lat="42.2807" lon="42.10626">
        <ele>62.706787</ele>
        <time>2021-09-09T09:19:22.794Z</time>
      </trkpt>
      <trkpt lat="42.28154" lon="42.10887">
        <ele>66.250699</ele>
        <time>2021-09-09T09:20:28.792Z</time>
      </trkpt>
      <trkpt lat="42.28263" lon="42.11152">
        <ele>64.190306</ele>
        <time>2021-09-09T09:35:22.827Z</time>
      </trkpt>
      <trkpt lat="42.28388" lon="42.11367">
        <ele>68.079267</ele>
        <time>2021-09-09T09:36:42.813Z</time>
      </trkpt>
      <trkpt lat="42.28481" lon="42.11639">
        <ele>67.594043</ele>
        <time>2021-09-09T09:37:47.811Z</time>
      </trkpt>
      <trkpt lat="42.28564" lon="42.11885">
        <ele>62.328552</ele>
        <time>2021-09-09T09:38:29.815Z</time>
      </trkpt>
      <trkpt lat="42.28689" lon="42.12108">
        <ele>63.303513</ele>
        <time>2021-09-09T09:39:27.820Z</time>
      </trkpt>
      <trkpt lat="42.28838" lon="42.12317">
        <ele>65.635064</ele>
        <time>2021-09-09T09:40:28.826Z</time>
      </trkpt>
      <trkpt lat="42.29011" lon="42.1255">
        <ele>65.673057</ele>
        <time>2021-09-09T09:41:27.821Z</time>
      </trkpt>
      <trkpt lat="42.2915" lon="42.12762">
        <ele>70.237847</ele>
        <time>2021-09-09T09:42:27.828Z</time>
      </trkpt>
      <trkpt lat="42.29182" lon="42.13054">
        <ele>68.963361</ele>
        <time>2021-09-09T09:43:11.815Z</time>
      </trkpt>
      <trkpt lat="42.29238" lon="42.13378">
        <ele>61.848586</ele>
        <time>2021-09-09T09:43:51.812Z</time>
      </trkpt>
      <trkpt lat="42.29384" lon="42.1362">
        <ele>58.053349</ele>
        <time>2021-09-09T09:44:46.860Z</time>
      </trkpt>
      <trkpt lat="42.2945" lon="42.13923">
        <ele>63.882029</ele>
        <time>2021-09-09T09:45:46.834Z</time>
      </trkpt>
      <trkpt lat="42.29511" lon="42.14213">
        <ele>71.574104</ele>
        <time>2021-09-09T09:46:59.803Z</time>
      </trkpt>
      <trkpt lat="42.29577" lon="42.14488">
        <ele>68.849076</ele>
        <time>2021-09-09T09:47:59.821Z</time>
      </trkpt>
      <trkpt lat="42.29661" lon="42.14758">
        <ele>65.311028</ele>
        <time>2021-09-09T09:48:59.832Z</time>
      </trkpt>
      <trkpt lat="42.2975" lon="42.15008">
        <ele>67.61894</ele>
        <time>2021-09-09T09:50:00.800Z</time>
      </trkpt>
      <trkpt lat="42.29844" lon="42.15263">
        <ele>66.229151</ele>
        <time>2021-09-09T09:51:00.795Z</time>
      </trkpt>
      <trkpt lat="42.29937" lon="42.15516">
        <ele>66.093101</ele>
        <time>2021-09-09T09:52:00.794Z</time>
      </trkpt>
      <trkpt lat="42.30025" lon="42.15756">
        <ele>69.484367</ele>
        <time>2021-09-09T09:53:00.799Z</time>
      </trkpt>
      <trkpt lat="42.30116" lon="42.15995">
        <ele>70.003</ele>
        <time>2021-09-09T09:54:00.798Z</time>
      </trkpt>
      <trkpt lat="42.30281" lon="42.16176">
        <ele>66.838027</ele>
        <time>2021-09-09T09:55:00.796Z</time>
      </trkpt>
      <trkpt lat="42.30471" lon="42.16295">
        <ele>69.622883</ele>
        <time>2021-09-09T09:56:00.790Z</time>
      </trkpt>
      <trkpt lat="42.30661" lon="42.16412">
        <ele>71.16272</ele>
        <time>2021-09-09T09:57:00.795Z</time>
      </trkpt>
      <trkpt lat="42.30848" lon="42.16532">
        <ele>72.02403</ele>
        <time>2021-09-09T09:58:01.787Z</time>
      </trkpt>
      <trkpt lat="42.31035" lon="42.16655">
        <ele>72.024176</ele>
        <time>2021-09-09T09:59:01.837Z</time>
      </trkpt>
      <trkpt lat="42.31227" lon="42.16784">
        <ele>74.481223</ele>
        <time>2021-09-09T10:00:02.817Z</time>
      </trkpt>
      <trkpt lat="42.31415" lon="42.16913">
        <ele>74.895642</ele>
        <time>2021-09-09T10:01:07.795Z</time>
      </trkpt>
      <trkpt lat="42.3161" lon="42.17045">
        <ele>75.756358</ele>
        <time>2021-09-09T10:02:07.792Z</time>
      </trkpt>
      <trkpt lat="42.31797" lon="42.17173">
        <ele>78.40577</ele>
        <time>2021-09-09T10:03:07.792Z</time>
      </trkpt>
      <trkpt lat="42.31983" lon="42.173">
        <ele>79.797556</ele>
        <time>2021-09-09T10:04:08.790Z</time>
      </trkpt>
      <trkpt lat="42.32165" lon="42.17427">
        <ele>81.292596</ele>
        <time>2021-09-09T10:05:12.793Z</time>
      </trkpt>
      <trkpt lat="42.32355" lon="42.17557">
        <ele>82.709114</ele>
        <time>2021-09-09T10:06:12.793Z</time>
      </trkpt>
      <trkpt lat="42.3255" lon="42.1769">
        <ele>83.515014</ele>
        <time>2021-09-09T10:07:15.801Z</time>
      </trkpt>
      <trkpt lat="42.32731" lon="42.17812">
        <ele>84.142705</ele>
        <time>2021-09-09T10:08:15.804Z</time>
      </trkpt>
      <trkpt lat="42.32925" lon="42.17944">
        <ele>84.949483</ele>
        <time>2021-09-09T10:09:16.806Z</time>
      </trkpt>
      <trkpt lat="42.33118" lon="42.18074">
        <ele>85.195279</ele>
        <time>2021-09-09T10:10:16.800Z</time>
      </trkpt>
      <trkpt lat="42.33302" lon="42.18205">
        <ele>87.413662</ele>
        <time>2021-09-09T10:11:19.794Z</time>
      </trkpt>
      <trkpt lat="42.33483" lon="42.18337">
        <ele>91.590586</ele>
        <time>2021-09-09T10:12:22.798Z</time>
      </trkpt>
      <trkpt lat="42.33706" lon="42.18459">
        <ele>85.18524</ele>
        <time>2021-09-09T10:13:20.808Z</time>
      </trkpt>
      <trkpt lat="42.33916" lon="42.18566">
        <ele>90.388165</ele>
        <time>2021-09-09T10:14:21.794Z</time>
      </trkpt>
      <trkpt lat="42.341" lon="42.18719">
        <ele>95.664596</ele>
        <time>2021-09-09T10:25:19.791Z</time>
      </trkpt>
      <trkpt lat="42.34286" lon="42.18874">
        <ele>103.20336</ele>
        <time>2021-09-09T10:26:19.791Z</time>
      </trkpt>
      <trkpt lat="42.34461" lon="42.19017">
        <ele>103.428469</ele>
        <time>2021-09-09T10:27:20.812Z</time>
      </trkpt>
      <trkpt lat="42.34641" lon="42.19151">
        <ele>103.191588</ele>
        <time>2021-09-09T10:28:30.796Z</time>
      </trkpt>
      <trkpt lat="42.34845" lon="42.19304">
        <ele>104.085975</ele>
        <time>2021-09-09T10:29:26.787Z</time>
      </trkpt>
      <trkpt lat="42.35052" lon="42.19448">
        <ele>103.214246</ele>
        <time>2021-09-09T10:30:26.815Z</time>
      </trkpt>
      <trkpt lat="42.3526" lon="42.19372">
        <ele>107.264938</ele>
        <time>2021-09-09T10:31:27.789Z</time>
      </trkpt>
      <trkpt lat="42.3547" lon="42.19316">
        <ele>105.2194</ele>
        <time>2021-09-09T10:32:27.795Z</time>
      </trkpt>
      <trkpt lat="42.35566" lon="42.1928">
        <ele>105.2194</ele>
        <time>2021-09-09T10:34:47.227Z</time>
      </trkpt>
    </trkseg>
  </trk>
</gpx>